Tiempo atmosférico en la estación meteorológica de Antequera, Málaga (400 m.)



Fecha
DESCASC
Temp. máxima en grados centígrados (hora)
DESCASC
Temp. mínima en grados centígrados (hora)
DESCASC
Temp. media en grados centígrados
DESCASC
Racha de viento máxima en m/sg (hora)
DESCASC
Velocidad máxima media en intervalos de 10 minutos(hora)
DESCASC
Precipitaciones diarias en mm
DESCASC
Precipitaciones de 00:00 a 06:00 en mm
DESCASC
Precipitaciones de 06:00 a 12:00 en mm
DESCASC
Precipitaciones de 12:00 a 18:00 en mm
DESCASC
Precipitaciones de 18:00 a 24:00 en mm
DESCASC
19-01-2020 -- (--) -- (--) -- -- (--) -- (--) -- -- 0.1 0.1 0
18-01-2020 13.5 (23:40) 2.4 (05:10) 8 6.67 (23:00) 2.5 (23:40) 1 0 0.7 0.2 0.1
17-01-2020 15.1 (15:40) 1.1 (08:00) 8.1 4.72 (15:10) 2.5 (12:50) 0 0 0 0 0
16-01-2020 17.2 (14:50) -1.4 (-00:0) 7.9 7.22 (13:40) 3.61 (13:40) 0 0 0 0 0
15-01-2020 16.7 (15:50) -0.5 (-00:0) 8.1 3.89 (17:30) 2.22 (01:20) 0 0 0 0 0
14-01-2020 12.5 (14:50) -1.5 (-00:0) 5.5 5.83 (15:10) 2.22 (15:10) 0 0 0 0 0
13-01-2020 14.7 (15:00) 0 (00:00) 7.3 4.17 (19:00) 1.39 (11:40) 0 0 0 0 0
12-01-2020 13.9 (16:10) -0.3 (00:00) 6.8 4.17 (15:50) 1.39 (17:40) 0 0 0 0 0
11-01-2020 14.7 (16:50) -1.1 (-00:0) 6.8 4.17 (23:00) 1.11 (00:10) 0 0 0 0 0
10-01-2020 13 (16:20) 2.4 (00:00) 7.7 7.5 (14:50) 2.5 (12:10) 0 0 0 0 0
09-01-2020 14.6 (14:50) 5.6 (00:00) 10.1 7.5 (01:00) 3.89 (01:00) 0 0 0 0 0
08-01-2020 -- (--) -- (--) -- -- (--) -- (--) -- 0 0 -- 0
07-01-2020 17.5 (16:40) -0.4 (00:00) 8.5 3.61 (15:10) 1.11 (07:20) 0 0 0 0 0
06-01-2020 14.5 (15:20) 2.2 (00:00) 8.4 8.06 (04:00) 3.06 (04:00) 0 0 0 0 0
05-01-2020 13.7 (14:50) 6.6 (00:00) 10.1 9.17 (01:50) 4.17 (13:40) 0 0 0 0 0
04-01-2020 13.6 (15:00) 4.3 (00:00) 9 8.61 (16:30) 4.17 (16:30) 0 0 0 0 0
03-01-2020 12.3 (15:10) 1.1 (00:00) 6.7 3.89 (16:50) 1.67 (15:40) 0.1 0 0.1 0 0
02-01-2020 14.3 (15:30) 5 (00:00) 9.7 7.22 (10:30) 4.17 (11:40) 0 0 0 0 0
01-01-2020 16.5 (16:20) 5.7 (00:00) 11.1 4.72 (05:20) 1.94 (06:40) 0 0 0 0 0
31-12-2019 13.5 (14:40) 5.5 (00:00) 9.5 12.5 (13:00) 6.67 (13:00) 0 0 0 0 0
30-12-2019 13.4 (14:50) 9.4 (00:00) 11.4 13.33 (11:50) 6.94 (13:00) 0 0 0 0 0
29-12-2019 13.4 (15:40) 9.9 (00:00) 11.6 17.22 (10:00) 9.44 (10:50) 0 0 0 0 0
28-12-2019 16.5 (16:40) 10.2 (00:00) 13.3 10.56 (11:50) 5.28 (18:40) 0 0 0 0 0
27-12-2019 17.3 (15:10) 10 (00:00) 13.6 12.22 (13:30) 6.11 (13:30) -- -- 0 0 0
26-12-2019 18.9 (15:50) 4.4 (00:00) 11.6 3.89 (18:00) 1.67 (17:00) 0 0 0 0 0
25-12-2019 20.4 (15:30) 4.4 (00:00) 12.4 3.33 (08:30) 1.67 (08:30) 0 0 0 0 0
24-12-2019 20.3 (14:50) 3.3 (00:00) 11.8 11.39 (15:30) 5.28 (13:00) 0.1 0 0.1 0 0
23-12-2019 16.8 (16:30) 7.9 (00:00) 12.3 4.44 (18:40) 2.5 (02:20) 0 0 0 0 0

Gráficas

Temp. máximas Temp. mínimas Temp. medias Precipitaciones Rachas de viento máximas Velocidades máximas media en intervalos de 10 minutos

Datos horarios

Fecha y hora oficial Temperatura (ºC) Velocidad del viento (km/h) Dirección del viento Racha (km/h) Dirección de racha Precipitación (mm) Presión (hPa) Tendencia (hPa) Humedad (%)
2020-01-21 23:00:00 7.3 0 Calma 18 Sudeste 0 964.9 0.6 87
2020-01-21 22:00:00 7.4 6 Sudeste 21 Sudeste 0.3 964.6 1.2 88
2020-01-21 21:00:00 8 4 Sudeste 13 Sudeste 0 964.3 1.5 81
2020-01-21 20:00:00 8.6 0 Calma 6 Norte 0 964.3 1.8 70
2020-01-21 19:00:00 9.2 0 Calma 9 Este 0 963.4 1.2 64
2020-01-21 18:00:00 9.5 4 Nordeste 8 Nordeste 0 962.8 0.3 61
2020-01-21 17:00:00 9.9 0 Calma 9 Noroeste 0 962.5 -0.6 59
2020-01-21 16:00:00 10 0 Calma 11 Nordeste 0 962.2 -1.4 59
2020-01-21 15:00:00 9.8 3 Noroeste 13 Sudeste 0 962.5 -1.7 59
2020-01-21 14:00:00 9.5 0 Calma 12 Este 0 963.1 -1.7 60
2020-01-21 13:00:00 8.7 4 Este 12 Este 0 963.6 -0.6 64
2020-01-21 12:00:00 7.6 3 Sudeste 13 Este 0 964.2 -0.2 71
2020-01-21 11:00:00 6.2 2 Este 8 Este 0 964.8 0.4 79
2020-01-21 10:00:00 3.7 0 Calma 6 Sudoeste 0 964.2 0.6 88
2020-01-21 09:00:00 3.5 0 Calma 13 Noroeste 0 964.4 0.2 87
2020-01-21 08:00:00 3 2 Nordeste 14 Noroeste 0 964.4 -0.2 88
2020-01-21 07:00:00 3.4 8 Noroeste 14 Noroeste 0 963.6 -1.3 85
2020-01-21 06:00:00 2.6 0 Calma 10 Noroeste 0 964.2 -1 86
2020-01-21 05:00:00 3.4 5 Noroeste 8 Noroeste 0 964.6 -1 84
2020-01-21 04:00:00 4.1 0 Calma 0 Calma 0 964.9 -1.2 82
2020-01-21 03:00:00 4.2 0 Calma 5 Nordeste 0 965.2 -1 80
2020-01-21 02:00:00 4.5 0 Calma 4 Nordeste 0 965.6 -0.5 78
2020-01-21 01:00:00 5 0 Calma 10 Noroeste 0 966.1 0.2 76
2020-01-21 00:00:00 5.2 0 Calma 9 Nordeste 0 966.2 0.6 73
2020-01-20 23:00:00 6.3 0 Calma 8 Nordeste 0 966.1 0.6 69
2020-01-20 22:00:00 6.8 5 Nordeste 12 Norte 0 965.9 0.8 66
2020-01-20 21:00:00 6.8 6 Nordeste 16 Nordeste 0 965.6 0.9 66
2020-01-20 20:00:00 7.3 5 Nordeste 15 Nordeste 0 965.5 1 65
2020-01-20 19:00:00 7.6 3 Nordeste 14 Norte 0 965.1 0.8 61
2020-01-20 18:00:00 8.6 6 Nordeste 19 Nordeste 0 964.7 0.4 56
2020-01-20 17:00:00 8.5 14 Nordeste 22 Nordeste 0 964.5 -0.6 55
2020-01-20 16:00:00 8.3 6 Nordeste 17 Norte 0 964.3 -1.4 57
2020-01-20 15:00:00 7.8 9 Nordeste 20 Norte 0 964.3 -1.8 57
2020-01-20 14:00:00 5.7 2 Norte 17 Nordeste 0 965.1 -1.1 65
2020-01-20 13:00:00 5.5 5 Nordeste 29 Nordeste 0 965.7 -0.7 65
2020-01-20 12:00:00 5 13 Nordeste 26 Norte 0 966.1 -0.3 65
2020-01-20 11:00:00 4.8 12 Nordeste 21 Nordeste 0 966.2 -0.4 66
2020-01-20 10:00:00 3.4 5 Nordeste 23 Nordeste 0 966.4 -0.3 71
2020-01-20 09:00:00 3.1 11 Nordeste 24 Nordeste 0 966.4 -0.5 71
2020-01-20 08:00:00 3.4 10 Nordeste 28 Norte 0 966.6 -0.2 67
2020-01-20 07:00:00 3.4 6 Nordeste 31 Nordeste 0 966.7 -0.6 71
2020-01-20 06:00:00 3.6 7 Nordeste 33 Nordeste 0 966.9 -1 72
2020-01-20 05:00:00 4.4 14 Nordeste 28 Norte 0 966.8 -1.2 70
2020-01-20 04:00:00 4.6 11 Nordeste 31 Nordeste 0 967.3 -0.7 71
2020-01-20 03:00:00 4.2 3 Norte 23 Nordeste 0 967.9 -0.3 76
2020-01-20 02:00:00 4.3 4 Norte 25 Nordeste 0 968 0.3 72
2020-01-20 01:00:00 5.1 11 Nordeste 29 Nordeste 0 968 0.3 71
2020-01-20 00:00:00 5.5 10 Nordeste 27 Nordeste 0 968.2 -0.1 71
2020-01-19 23:00:00 5.6 8 Nordeste 31 Nordeste 0 967.7 -0.7 71
2020-01-19 22:00:00 6 5 Norte 26 Norte 0 967.7 -0.3 75
2020-01-19 21:00:00 6.6 3 Norte 27 Norte 0 968.3 0.2 73
2020-01-19 20:00:00 7.4 10 Nordeste 24 Nordeste 0 968.4 0.4 70
2020-01-19 19:00:00 7.6 0 Calma 22 Nordeste 0 968 -0.1 75
2020-01-19 18:00:00 8 5 Nordeste 24 Nordeste 0 968.1 -0.9 72
2020-01-19 17:00:00 7.9 13 Nordeste 36 Nordeste 0.1 968 -1.1 71
2020-01-19 16:00:00 10.1 4 Norte -- -- -- 968.1 -1.9 58
2020-01-19 15:00:00 9.6 4 Norte 31 Nordeste 0 969 -1.9 60
2020-01-19 14:00:00 10.7 5 Norte 30 Noroeste 0 969.1 -2.2 65
2020-01-19 13:00:00 9.6 9 Noroeste 34 Noroeste 0 970 -0.7 70
2020-01-19 12:00:00 9.2 14 Noroeste 29 Noroeste 0 970.9 0 74
2020-01-19 11:00:00 8.3 12 Noroeste 28 Oeste 0 971.3 0.3 81
2020-01-19 10:00:00 7.7 13 Noroeste 27 Oeste 0 970.7 -0.3 83
2020-01-19 09:00:00 7.5 13 Noroeste 27 Noroeste 0.1 970.9 -0.1 84
2020-01-19 08:00:00 7.6 12 Noroeste 28 Noroeste 0 971 -0.7 85
2020-01-19 07:00:00 7.8 9 Noroeste 29 Noroeste 0 971 -1.7 86
2020-01-19 06:00:00 8.9 13 Noroeste 31 Noroeste 0 971 -2 86
2020-01-19 05:00:00 9.2 12 Oeste 23 Noroeste 0 971.7 -2.7 85
2020-01-19 04:00:00 9.6 6 Oeste -- -- -- 972.7 -2.1 87
2020-01-19 03:00:00 10 5 Oeste 19 Oeste 0 973 -1.7 87
2020-01-19 02:00:00 10.7 9 Noroeste -- -- -- 974.4 -0.4 86
2020-01-19 01:00:00 12 15 Noroeste 36 Noroeste 1.9 974.8 -1 89
2020-01-19 00:00:00 13.2 6 Oeste 22 Oeste 0 974.7 -1.9 90
2020-01-18 23:00:00 13.3 5 Sudoeste 24 Oeste 0 974.8 -2.7 90
2020-01-18 22:00:00 11.7 0 Calma 5 Sudoeste 0 975.8 -1.9 78
2020-01-18 21:00:00 11.4 0 Calma 8 Noroeste 0.1 976.6 -1.6 80
2020-01-18 20:00:00 11.5 3 Oeste 9 Oeste 0 977.5 -1.2 76
2020-01-18 19:00:00 11.9 0 Calma 9 Sudoeste 0 977.7 -1.5 72
2020-01-18 18:00:00 12.3 0 Calma 9 Sudoeste 0 978.2 -1.3 72
2020-01-18 17:00:00 12.4 3 Sudoeste 8 Sudoeste 0 978.7 -1.6 72
2020-01-18 16:00:00 12 0 Calma 4 Sudoeste 0 979.2 -2.4 77
2020-01-18 15:00:00 11.9 0 Calma 3 Nordeste 0 979.5 -2.9 77
2020-01-18 14:00:00 10.3 3 Nordeste 8 Nordeste 0 980.3 -3.2 81
2020-01-18 13:00:00 9.1 3 Este 8 Este 0.2 981.6 -1.3 92
2020-01-18 12:00:00 7.9 5 Oeste 9 Oeste 0.1 982.4 0 92
2020-01-18 11:00:00 7.2 5 Nordeste 10 Nordeste 0.4 983.5 2.1 92
2020-01-18 10:00:00 6.2 5 Nordeste 9 Nordeste 0.2 982.9 1.8 90
2020-01-18 09:00:00 4.9 0 Calma 14 Noroeste 0 982.4 1.1 93
2020-01-18 08:00:00 4.8 6 Noroeste 11 Noroeste 0 981.4 -0.1 93
2020-01-18 07:00:00 4.6 0 Calma 12 Noroeste 0 981.1 -1.1 94
2020-01-18 06:00:00 3.9 0 Calma 14 Oeste 0 981.3 -1.2 95
2020-01-18 05:00:00 2.5 5 Este 8 Este 0 981.5 -1.1 95
2020-01-18 04:00:00 4.6 0 Calma 9 Noroeste 0 982.2 -0.9 95
2020-01-18 03:00:00 5.2 2 Noroeste 12 Nordeste 0 982.5 -0.6 94
2020-01-18 02:00:00 5.5 3 Nordeste 5 Este 0 982.6 -0.8 93
2020-01-18 01:00:00 7.4 3 Oeste 6 Oeste 0 983.1 -0.2 89
2020-01-18 00:00:00 7.2 2 Oeste 9 Oeste 0 983.1 0 89
2020-01-17 23:00:00 8 2 Noroeste 9 Nordeste 0 983.4 0.2 86
2020-01-17 22:00:00 7.9 3 Nordeste 13 Norte 0 983.3 0.5 82
2020-01-17 21:00:00 10.5 8 Nordeste 12 Norte 0 983.1 0.9 77
2020-01-17 20:00:00 10.3 0 Calma 10 Noroeste 0 983.2 1.5 76
2020-01-17 19:00:00 12.1 0 Calma 9 Nordeste 0 982.8 1.1 69
2020-01-17 18:00:00 13.5 0 Calma 10 Norte 0 982.2 0.1 64
2020-01-17 17:00:00 14.3 6 Nordeste 13 Nordeste 0 981.7 -1.2 62
2020-01-17 16:00:00 14.6 2 Norte 17 Nordeste 0 981.7 -2.1 63
2020-01-17 15:00:00 14.5 7 Nordeste 16 Nordeste 0 982.1 -2.4 64
2020-01-17 14:00:00 14 5 Nordeste 13 Nordeste 0 982.9 -1.4 65
2020-01-17 13:00:00 12.4 7 Nordeste 13 Nordeste 0 983.8 0.1 57
2020-01-17 12:00:00 9.3 6 Nordeste 11 Nordeste 0 984.5 1.5 64
2020-01-17 11:00:00 6.1 0 Calma 5 Este 0 984.3 2.1 78
2020-01-17 10:00:00 4.5 0 Calma 5 Oeste 0 983.7 2 84
2020-01-17 09:00:00 3.9 0 Calma 8 Oeste 0 983 1.5 87
2020-01-17 08:00:00 1.7 0 Calma 6 Noroeste 0 982.2 1.2 87
2020-01-17 07:00:00 2.5 0 Calma 3 Noroeste 0 981.7 0.4 88
2020-01-17 06:00:00 2.5 0 Calma 4 Norte 0 981.5 -0.1 87
2020-01-17 05:00:00 2.9 0 Calma 6 Nordeste 0 981 -0.5 85
2020-01-17 04:00:00 4.4 2 Nordeste 8 Nordeste 0 981.3 -0.4 82
2020-01-17 03:00:00 4.4 2 Nordeste 9 Nordeste 0 981.6 -0.1 78
2020-01-17 02:00:00 5.3 2 Noroeste 9 Oeste 0 981.5 0.7 81
2020-01-17 01:00:00 5.6 0 Calma 10 Nordeste 0 981.7 1 78
2020-01-17 00:00:00 6.4 0 Calma 5 Oeste 0 981.7 1.6 75
2020-01-16 23:00:00 7.7 0 Calma 5 Nordeste 0 980.8 1.3 70
2020-01-16 22:00:00 9 0 Calma 6 Noroeste 0 980.7 1.6 66
2020-01-16 21:00:00 10.7 2 Noroeste 6 Noroeste 0 980.1 1.6 59
2020-01-16 20:00:00 11.6 0 Calma 5 Noroeste 0 979.5 1.4 51
2020-01-16 19:00:00 13.4 2 Noroeste 10 Sur 0 979.1 1.1 42
2020-01-16 18:00:00 15.2 3 Sur 13 Sur 0 978.5 0.5 39
2020-01-16 17:00:00 16.5 8 Sur 22 Sudeste 0 978.1 -0.5 35
2020-01-16 16:00:00 16.9 4 Sur 17 Sudeste 0 978 -1.1 33
2020-01-16 15:00:00 16.8 4 Sur 19 Sur 0 978 -1.9 33
2020-01-16 14:00:00 16.6 8 Sur 26 Sudeste 0 978.6 -1.4 34
2020-01-16 13:00:00 15.8 3 Sur 12 Sur 0 979.1 -0.6 40
2020-01-16 12:00:00 10.4 0 Calma 6 Sudeste 0 979.9 0.6 60
2020-01-16 11:00:00 6.2 0 Calma 5 Este 0 980 1 75
2020-01-16 10:00:00 1.7 0 Calma 6 Este 0 979.7 1 88
2020-01-16 09:00:00 -0.3 0 Calma 6 Noroeste 0 979.3 1.1 94
2020-01-16 08:00:00 0 0 Calma 5 Este 0 979 0.2 94
2020-01-16 07:00:00 0 0 Calma 5 Norte 0 978.7 -0.3 93
2020-01-16 06:00:00 0.7 0 Calma 4 Nordeste 0 978.2 -0.8 91
2020-01-16 05:00:00 1.4 0 Calma 3 Nordeste 0 978.8 -0.3 90
2020-01-16 04:00:00 1.5 0 Calma 4 Norte 0 979 -0.2 90
2020-01-16 03:00:00 2.8 0 Calma -- -- 0 979 -0.3 87
2020-01-16 02:00:00 3.1 0 Calma 3 Sudeste 0 979.1 0.1 83
2020-01-16 01:00:00 4.6 0 Calma 4 Nordeste 0 979.2 0.3 78
2020-01-16 00:00:00 5.3 0 Calma 2 Nordeste 0 979.3 0.4 78
2020-01-15 23:00:00 6.5 0 Calma 8 Noroeste 0 979 0.2 76
2020-01-15 22:00:00 7.6 0 Calma -- -- 0 978.9 0.5 72
2020-01-15 21:00:00 9.3 0 Calma -- -- 0 978.9 1.1 65
2020-01-15 20:00:00 11 0 Calma 13 Noroeste 0 978.8 1.5 59
2020-01-15 19:00:00 12.9 0 Calma 12 Noroeste 0 978.4 1.4 52
2020-01-15 18:00:00 14.5 2 Noroeste 14 Noroeste 0 977.8 0.8 40
2020-01-15 17:00:00 16.3 4 Noroeste 13 Noroeste 0 977.3 -0.1 33
2020-01-15 16:00:00 16.4 0 Calma 12 Oeste 0 977 -1 34
2020-01-15 15:00:00 16.4 4 Sur 12 Nordeste 0 977 -1.5 35
2020-01-15 14:00:00 14.9 3 Este 9 Este 0 977.4 -0.9 39
2020-01-15 13:00:00 13.1 5 Este 10 Este 0 978 0.3 52
2020-01-15 12:00:00 8.7 0 Calma 4 Sudeste 0 978.5 1.5 69
2020-01-15 11:00:00 4.8 0 Calma 5 Este 0 978.3 1.9 81
2020-01-15 10:00:00 1.3 0 Calma -- -- 0 977.7 2.1 91
2020-01-15 09:00:00 0 0 Calma -- -- 0 977 1.4 93
2020-01-15 08:00:00 0.3 0 Calma -- -- 0 976.4 1 93
2020-01-15 07:00:00 0.8 0 Calma -- -- 0 975.6 -0.2 92
2020-01-15 06:00:00 1 0 Calma -- -- 0 975.6 -0.2 90
2020-01-15 05:00:00 2.2 0 Calma 3 Oeste 0 975.4 -0.3 88
2020-01-15 04:00:00 2.9 2 Oeste 7 Noroeste 0 975.8 -0.3 87
2020-01-15 03:00:00 2.7 0 Calma 3 Noroeste 0 975.8 -0.6 87
2020-01-15 02:00:00 3.1 0 Calma 12 Nordeste 0 975.7 -0.5 85
2020-01-15 01:00:00 3.7 5 Nordeste 9 Nordeste 0 976.1 0.2 84
2020-01-15 00:00:00 4.2 0 Calma 7 Norte 0 976.4 0.7 79
2020-01-14 23:00:00 6 0 Calma 0 Calma 0 976.2 0.8 74
2020-01-14 22:00:00 5.8 0 Calma 6 Noroeste 0 975.9 0.9 71
2020-01-14 21:00:00 7.3 0 Calma 4 Noroeste 0 975.7 1.2 65
2020-01-14 20:00:00 8.6 0 Calma 8 Noroeste 0 975.4 1.2 57
2020-01-14 19:00:00 10.3 0 Calma 3 Noroeste 0 975 1 51
2020-01-14 18:00:00 11.3 0 Calma 8 Nordeste 0 974.5 0.3 49
2020-01-14 17:00:00 12.1 0 Calma 14 Noroeste 0 974.2 -0.5 47
2020-01-14 16:00:00 12.3 7 Noroeste 21 Noroeste 0 974 -1.7 49
2020-01-14 15:00:00 12.3 4 Noroeste 14 Noroeste 0 974.2 -2.2 49
2020-01-14 14:00:00 11.2 3 Norte 12 Noroeste 0 974.7 -1.3 53
2020-01-14 13:00:00 10 4 Este 8 Este 0 975.7 0.1 59
2020-01-14 12:00:00 7.5 0 Calma 7 Sudeste 0 976.4 1.3 70
2020-01-14 11:00:00 4.1 2 Este 5 Sudeste 0 976 0.9 79
2020-01-14 10:00:00 1.3 2 Este 5 Nordeste 0 975.6 0.9 89
2020-01-14 09:00:00 -1.3 0 Calma 4 Sudeste 0 975.1 0.8 90
2020-01-14 08:00:00 -0.7 0 Calma -- -- 0 975.1 0.7 91
2020-01-14 07:00:00 -0.1 0 Calma 4 Noroeste 0 974.7 -0.2 91
2020-01-14 06:00:00 0.9 0 Calma 5 Noroeste 0 974.3 -0.9 91
2020-01-14 05:00:00 1.4 0 Calma 4 Oeste 0 974.4 -1 90
2020-01-14 04:00:00 0.5 0 Calma 3 Oeste 0 974.9 -0.8 89
2020-01-14 03:00:00 1.1 0 Calma 3 Este 0 975.2 -0.9 88
2020-01-14 02:00:00 2.3 0 Calma 5 Norte 0 975.4 -1 86
2020-01-14 01:00:00 2.7 0 Calma 6 Oeste 0 975.7 -0.6 84
2020-01-14 00:00:00 4.2 0 Calma 4 Nordeste 0 976.1 -0.3 78
2020-01-13 23:00:00 5.1 0 Calma -- -- 0 976.4 -0.2 72
2020-01-13 22:00:00 6.6 0 Calma 5 Este 0 976.3 0.1 66
2020-01-13 21:00:00 7.3 0 Calma 4 Este 0 976.4 0.9 62
2020-01-13 20:00:00 9 0 Calma 12 Norte 0 976.6 1.1 55
2020-01-13 19:00:00 10.4 0 Calma 15 Noroeste 0 976.2 0.6 49
2020-01-13 18:00:00 12.3 2 Norte 12 Norte 0 975.5 -0.6 45
2020-01-13 17:00:00 13.9 0 Calma 8 Oeste 0 975.5 -1.3 39
2020-01-13 16:00:00 14.2 4 Noroeste 13 Oeste 0 975.6 -2.4 38
2020-01-13 15:00:00 14.4 2 Oeste 10 Noroeste 0 976.1 -2.5 37
2020-01-13 14:00:00 13.8 0 Calma 12 Noroeste 0 976.8 -1.9 41
2020-01-13 13:00:00 12.2 3 Oeste 12 Oeste 0 978 -0.3 46
2020-01-13 12:00:00 11.3 2 Este 12 Este 0 978.6 0.8 54
2020-01-13 11:00:00 7.3 2 Este 11 Este 0 978.7 1 75
2020-01-13 10:00:00 3.8 0 Calma 8 Este 0 978.3 0.8 85
2020-01-13 09:00:00 4.8 2 Nordeste 6 Este 0 977.8 0.1 89
2020-01-13 08:00:00 1.4 0 Calma 8 Sudeste 0 977.7 -0.4 93
2020-01-13 07:00:00 1.5 0 Calma 8 Este 0 977.5 -1.1 93
2020-01-13 06:00:00 1.9 0 Calma 8 Este 0 977.7 -1.1 93
2020-01-13 05:00:00 1.6 0 Calma 12 Oeste 0 978.1 -1 93
2020-01-13 04:00:00 0.8 0 Calma 6 Oeste 0 978.6 -1.2 90
2020-01-13 03:00:00 1.1 0 Calma 8 Nordeste 0 978.8 -1.5 88
2020-01-13 02:00:00 2.2 4 Nordeste 9 Nordeste 0 979.1 -1.2 88
2020-01-13 01:00:00 3.6 0 Calma 0 Calma 0 979.8 -0.5 83
2020-01-13 00:00:00 4.4 0 Calma 8 Oeste 0 980.3 0.3 79
2020-01-12 23:00:00 5.5 0 Calma 8 Oeste 0 980.3 0.3 76
2020-01-12 22:00:00 5.9 0 Calma 5 Noroeste 0 980.3 0.8 70
2020-01-12 21:00:00 7.1 3 Noroeste 6 Oeste 0 980 0.9 64
2020-01-12 20:00:00 8.7 0 Calma 10 Noroeste 0 980 1 58
2020-01-12 19:00:00 10.8 2 Noroeste 12 Noroeste 0 979.5 0.1 49
2020-01-12 18:00:00 12.7 4 Noroeste 12 Oeste 0 979.1 -0.3 43
2020-01-12 17:00:00 13.5 3 Noroeste 14 Nordeste 0 979 -1.3 43
2020-01-12 16:00:00 13.6 2 Nordeste 15 Noroeste 0 979.4 -1.8 43
2020-01-12 15:00:00 13.1 3 Nordeste 14 Noroeste 0 979.4 -2.9 46
2020-01-12 14:00:00 12.7 2 Nordeste 11 Este 0 980.3 -2.3 51
2020-01-12 13:00:00 11.3 4 Nordeste 10 Este 0 981.2 -0.9 58
2020-01-12 12:00:00 8.9 2 Este 8 Sudeste 0 982.3 0.4 69
2020-01-12 11:00:00 5 3 Este 7 Este 0 982.6 1 83
2020-01-12 10:00:00 1.9 0 Calma 2 Sudeste 0 982.1 0.9 93
2020-01-12 09:00:00 0 0 Calma 5 Nordeste 0 981.9 0.6 93
2020-01-12 08:00:00 1.2 3 Nordeste 4 Nordeste 0 981.6 0.3 94
2020-01-12 07:00:00 1.3 0 Calma 4 Nordeste 0 981.2 -0.3 93
2020-01-12 06:00:00 1.7 0 Calma 5 Este 0 981.3 -0.2 93
2020-01-12 05:00:00 3 0 Calma 0 Calma 0 981.3 -0.1 93
2020-01-12 04:00:00 3.4 0 Calma 3 Sudeste 0 981.5 -0.1 90
2020-01-12 03:00:00 5.1 0 Calma 5 Este 0 981.5 -0.3 90
2020-01-12 02:00:00 7.1 2 Oeste 5 Oeste 0 981.4 -0.2 86
2020-01-12 01:00:00 7.3 0 Calma 5 Oeste 0 981.6 0.1 84
2020-01-12 00:00:00 8 3 Oeste 12 Sudeste 0 981.8 0.5 80
2020-01-11 23:00:00 8.9 2 Sudoeste 15 Sur 0 981.6 0.8 76
2020-01-11 22:00:00 8.8 2 Sur 14 Sur 0 981.5 1.3 75
2020-01-11 21:00:00 8.7 0 Calma 8 Oeste 0 981.3 1.7 63
2020-01-11 20:00:00 9.7 2 Oeste 8 Sudoeste 0 980.8 1.7 59
2020-01-11 19:00:00 11.3 0 Calma 10 Noroeste 0 980.2 1.2 51
2020-01-11 18:00:00 13 2 Nordeste 7 Nordeste 0 979.6 0.7 47
2020-01-11 17:00:00 14.4 0 Calma 8 Oeste 0 979.1 -0.5 43
2020-01-11 16:00:00 14.1 0 Calma 14 Oeste 0 979 -1.4 45
2020-01-11 15:00:00 13.2 0 Calma 10 Noroeste 0 978.9 -2.3 48
2020-01-11 14:00:00 12.7 0 Calma 7 Sudoeste 0 979.6 -1.7 48
2020-01-11 13:00:00 11 0 Calma 6 Este 0 980.4 -0.3 51
2020-01-11 12:00:00 8 0 Calma 3 Sudeste 0 981.2 1.3 62
2020-01-11 11:00:00 4 0 Calma 5 Este 0 981.3 1.9 77
2020-01-11 10:00:00 1.2 0 Calma 4 Sudeste 0 980.7 1.6 87
2020-01-11 09:00:00 -0.1 0 Calma 5 Oeste 0 979.9 1.2 90
2020-01-11 08:00:00 -0.3 0 Calma 4 Noroeste 0 979.4 0.4 90
2020-01-11 07:00:00 0 4 Nordeste 7 Nordeste 0 979.1 0.1 90
2020-01-11 06:00:00 0.7 0 Calma 0 Calma 0 978.7 -0.1 87
2020-01-11 05:00:00 1 0 Calma 5 Oeste 0 979 0.6 85
2020-01-11 04:00:00 1.7 0 Calma 4 Noroeste 0 979 0.5 81
2020-01-11 03:00:00 3 0 Calma 5 Oeste 0 978.8 0.3 77
2020-01-11 02:00:00 2.4 0 Calma 9 Sur 0 978.4 -0.2 75
2020-01-11 01:00:00 3.5 0 Calma 10 Nordeste 0 978.5 0.3 70
2020-01-11 00:00:00 6.2 2 Nordeste 8 Nordeste 0 978.5 0.5 60
2020-01-10 23:00:00 6.5 0 Calma 10 Nordeste 0 978.6 1.3 58
2020-01-10 22:00:00 8.2 4 Nordeste 13 Nordeste 0 978.2 1.6 54
2020-01-10 21:00:00 8.4 0 Calma 7 Nordeste 0 978 2.3 53
2020-01-10 20:00:00 9.2 0 Calma 18 Norte 0 977.3 2.7 50
2020-01-10 19:00:00 10.3 4 Norte 24 Noroeste 0 976.6 1.8 52
2020-01-10 18:00:00 11.6 4 Norte 23 Norte 0 975.7 0.4 50
2020-01-10 17:00:00 12.6 4 Norte 22 Noroeste 0 974.6 -1.2 51
2020-01-10 16:00:00 12.8 5 Norte 25 Noroeste 0 974.8 -1.3 57
2020-01-10 15:00:00 12.1 6 Noroeste 27 Noroeste 0 975.3 -2.3 66
2020-01-10 14:00:00 12 4 Norte 24 Noroeste 0 975.8 -1.9 67
2020-01-10 13:00:00 11.6 4 Norte 21 Noroeste 0 976.1 -1.4 69
2020-01-10 12:00:00 11.3 3 Norte 15 Noroeste 0 977.6 0.8 74
2020-01-10 11:00:00 7.7 4 Este 10 Este 0 977.7 0.9 82
2020-01-10 10:00:00 5.1 0 Calma 6 Este 0 977.5 0.6 89
2020-01-10 09:00:00 4.9 0 Calma 6 Oeste 0 976.8 -0.1 90
2020-01-10 08:00:00 4.1 0 Calma 5 Este 0 976.8 0.2 90
2020-01-10 07:00:00 4 0 Calma 0 Calma 0 976.9 -0.3 92
2020-01-10 06:00:00 3.5 0 Calma 5 Oeste 0 976.9 -0.3 94
2020-01-10 05:00:00 3.1 0 Calma 4 Oeste 0 976.6 -1.3 94
2020-01-10 04:00:00 2.6 0 Calma 3 Nordeste 0 977.2 -1 94
2020-01-10 03:00:00 3.4 0 Calma -- -- 0 977.2 -1.5 94
2020-01-10 02:00:00 3.9 0 Calma 6 Nordeste 0 977.9 -0.8 92
2020-01-10 01:00:00 4.7 0 Calma 2 Nordeste 0 978.2 0.2 90
2020-01-10 00:00:00 5.7 0 Calma -- -- 0 978.7 0.3 89
2020-01-09 23:00:00 5.9 0 Calma 10 Noroeste 0 978.7 0.1 85
2020-01-09 22:00:00 7.6 4 Noroeste 6 Oeste 0 978 0 83
2020-01-09 21:00:00 8.7 0 Calma 4 Noroeste 0 978.4 1.5 79
2020-01-09 20:00:00 9 0 Calma 15 Noroeste 0 978.6 1.5 76
2020-01-09 19:00:00 10.7 5 Noroeste 15 Noroeste 0 978 0.9 70
2020-01-09 18:00:00 12.8 0 Calma 9 Noroeste 0 976.9 -0.2 59
2020-01-09 17:00:00 14.1 0 Calma 11 Oeste 0 977.1 -0.7 54
2020-01-09 16:00:00 14.1 4 Noroeste 12 Noroeste 0 977.1 -1.5 51
2020-01-09 15:00:00 14.1 0 Calma 12 Oeste 0 977.1 -2.3 52
2020-01-09 14:00:00 13.7 2 Sur 14 Sudoeste 0 977.8 -1.5 54
2020-01-09 13:00:00 12.7 0 Calma 13 Sur 0 978.6 -0.4 60
2020-01-09 12:00:00 12.4 3 Oeste 20 Sudeste 0 979.4 0.7 63
2020-01-09 11:00:00 11.3 0 Calma -- -- -- 979.3 1.1 70
2020-01-09 10:00:00 9.3 0 Calma 6 Noroeste 0 979 0.8 82
2020-01-09 09:00:00 8 0 Calma 12 Noroeste 0 978.7 0.4 82
2020-01-09 08:00:00 8.6 0 Calma 14 Sur 0 978.2 -0.1 76
2020-01-09 07:00:00 8.8 2 Sur 18 Oeste 0 978.2 -0.7 77
2020-01-09 06:00:00 8.9 0 Calma 10 Sur 0 978.3 -0.9 78
2020-01-09 05:00:00 8.1 2 Oeste 7 Noroeste 0 978.3 -0.9 77
2020-01-09 04:00:00 9.4 0 Calma 17 Sudeste 0 978.9 -0.5 74
2020-01-09 03:00:00 9.5 3 Sur 25 Sur 0 979.2 -0.3 74
2020-01-09 02:00:00 9.2 5 Sur 27 Sur 0 979.2 -0.2 78
2020-01-09 01:00:00 9.5 14 Sur 27 Sur 0 979.4 0.3 77
2020-01-09 00:00:00 9.4 2 Sur 14 Oeste 0 979.5 0.7 73
2020-01-08 23:00:00 9.2 3 Oeste 10 Noroeste 0 979.4 0.9 79
2020-01-08 22:00:00 9.5 0 Calma 7 Sudoeste 0 979.1 1.1 72
2020-01-08 21:00:00 10.3 2 Oeste 8 Sur 0 978.8 0.9 64
2020-01-08 20:00:00 12.2 0 Calma 9 Sudoeste 0 978.5 0.8 52
2020-01-08 19:00:00 13 0 Calma 8 Sudoeste 0 978 0.5 47
2020-01-08 18:00:00 15.4 0 Calma 12 Sur 0 977.9 0.1 39
2020-01-08 17:00:00 17.5 0 Calma 8 Oeste 0 977.7 -0.5 28
2020-01-08 16:00:00 17.2 2 Noroeste 7 Oeste 0 977.5 -- 30
2020-01-08 15:00:00 16.7 0 Calma 7 Este 0 977.8 -1.9 33
2020-01-08 14:00:00 15.3 0 Calma -- -- -- 978.2 -2.1 39
2020-01-08 13:00:00 -- -- -- -- -- -- -- -- --
2020-01-08 12:00:00 8.6 0 Calma 3 Sudeste 0 979.7 0.2 66
2020-01-08 11:00:00 3.8 0 Calma 3 Este 0 980.3 0.9 81
2020-01-08 10:00:00 0.9 0 Calma 0 Calma 0 979.9 0.4 90
2020-01-08 09:00:00 -0.6 0 Calma -- -- -- 979.5 0.1 91
2020-01-08 08:00:00 -0.5 0 Calma -- -- 0 979.4 0 90
2020-01-08 07:00:00 0.7 0 Calma 4 Oeste 0 979.5 -0.1 91
2020-01-08 06:00:00 1 0 Calma 4 Nordeste 0 979.4 -0.4 90
2020-01-08 05:00:00 1.3 0 Calma -- -- 0 979.4 -0.6 90
2020-01-08 04:00:00 1.4 0 Calma -- -- 0 979.6 -0.7 89
2020-01-08 03:00:00 2.1 0 Calma -- -- 0 979.8 -0.9 87
2020-01-08 02:00:00 3 0 Calma 2 Nordeste 0 980 -0.6 86
2020-01-08 01:00:00 3.9 0 Calma -- -- 0 980.3 -0.7 84
2020-01-08 00:00:00 4.7 0 Calma -- -- 0 980.7 -- 80
2020-01-07 23:00:00 6.6 0 Calma -- -- 0 980.6 -0.1 75
2020-01-07 22:00:00 8 0 Calma -- -- 0 981 0.5 70
2020-01-07 21:00:00 -- 0 Calma 5 Oeste 0 -- -- --
2020-01-07 20:00:00 10.6 3 Oeste 9 Noroeste 0 980.7 1 54
2020-01-07 19:00:00 12.3 0 Calma 5 Oeste 0 980.5 0.7 47
2020-01-07 18:00:00 14.9 0 Calma 7 Sur 0 980.1 0.1 39
2020-01-07 17:00:00 17 0 Calma 6 Sur 0 979.7 -0.6 30
2020-01-07 16:00:00 16.9 0 Calma 13 Sur 0 979.8 -1.2 28
2020-01-07 15:00:00 16 0 Calma 11 Sudeste 0 980 -2.1 33
2020-01-07 14:00:00 14.7 0 Calma 7 Sur 0 980.3 -1.8 38
2020-01-07 13:00:00 12.3 0 Calma 8 Este 0 981 -0.8 55
2020-01-07 12:00:00 8 2 Este 9 Este 0 982.1 0.8 81
2020-01-07 11:00:00 2.6 0 Calma 6 Este 0 982.1 0.8 95
2020-01-07 10:00:00 0.1 0 Calma 5 Sur 0 981.8 0.4 96
2020-01-07 09:00:00 0.3 0 Calma 5 Sudoeste 0 981.3 0.3 95
2020-01-07 08:00:00 0.3 0 Calma 6 Oeste 0 981.3 0.2 95
2020-01-07 07:00:00 -0.3 0 Calma 7 Oeste 0 981.4 0.4 93
2020-01-07 06:00:00 0.9 0 Calma -- -- 0 981 0.1 91
2020-01-07 05:00:00 1.7 0 Calma -- -- 0 981.1 0.3 92
2020-01-07 04:00:00 2.2 0 Calma -- -- 0 981 -0.1 93
2020-01-07 03:00:00 3.1 0 Calma 3 Oeste 0 980.9 -0.4 92
2020-01-07 02:00:00 3.5 0 Calma 4 Nordeste 0 980.8 -0.1 92
2020-01-07 01:00:00 4.8 0 Calma 4 Noroeste 0 981.1 0.6 89
2020-01-07 00:00:00 6.9 0 Calma 7 Sudoeste 0 981.3 1.1 84
2020-01-06 23:00:00 7.6 2 Oeste 6 Oeste 0 980.9 0.9 83
2020-01-06 22:00:00 7.9 0 Calma 4 Sudoeste 0 980.5 1.2 79
2020-01-06 21:00:00 8.8 0 Calma 4 Noroeste 0 980.2 1.7 74
2020-01-06 20:00:00 9.9 0 Calma 5 Oeste 0 980 1.8 70
2020-01-06 19:00:00 11.2 0 Calma 10 Sur 0 979.3 1 62
2020-01-06 18:00:00 13.2 3 Sudeste 9 Sudeste 0 978.5 -0.1 55
2020-01-06 17:00:00 14.1 2 Nordeste 8 Noroeste 0 978.2 -1.1 51
2020-01-06 16:00:00 14 3 Nordeste 8 Nordeste 0 978.3 -1.7 49
2020-01-06 15:00:00 13.8 4 Sudeste 12 Sudeste 0 978.6 -1.8 51
2020-01-06 14:00:00 13.2 0 Calma 12 Sur 0 979.3 -1.4 54
2020-01-06 13:00:00 12.5 2 Oeste 14 Sudeste 0 980 -0.1 58
2020-01-06 12:00:00 11.3 0 Calma 7 Sudoeste 0 980.4 0.9 68
2020-01-06 11:00:00 7.2 3 Oeste 14 Nordeste 0 980.7 1.9 81
2020-01-06 10:00:00 5 9 Nordeste 16 Nordeste 0 980.1 1.8 84